sensor_id;sensor_type;location;lat;lon;timestamp;P1;durP1;ratioP1;P2;durP2;ratioP2
3789;SDS011;1910;49.042;9.028;2023-03-03T00:00:47;78.37;;;27.53;;
3789;SDS011;1910;49.042;9.028;2023-03-03T00:03:14;59.43;;;27.47;;
3789;SDS011;1910;49.042;9.028;2023-03-03T00:05:42;67.63;;;28.27;;
3789;SDS011;1910;49.042;9.028;2023-03-03T00:08:08;63.13;;;26.03;;
3789;SDS011;1910;49.042;9.028;2023-03-03T00:10:34;53.72;;;28.38;;
3789;SDS011;1910;49.042;9.028;2023-03-03T00:13:00;63.60;;;30.25;;
3789;SDS011;1910;49.042;9.028;2023-03-03T00:15:26;73.47;;;27.93;;
3789;SDS011;1910;49.042;9.028;2023-03-03T00:17:54;67.22;;;28.42;;
3789;SDS011;1910;49.042;9.028;2023-03-03T00:20:29;69.47;;;29.50;;
3789;SDS011;1910;49.042;9.028;2023-03-03T00:23:16;64.68;;;26.42;;
3789;SDS011;1910;49.042;9.028;2023-03-03T00:25:48;68.28;;;29.13;;
3789;SDS011;1910;49.042;9.028;2023-03-03T00:28:27;71.00;;;28.40;;
3789;SDS011;1910;49.042;9.028;2023-03-03T00:31:05;57.05;;;29.05;;
3789;SDS011;1910;49.042;9.028;2023-03-03T00:33:51;61.30;;;26.25;;
3789;SDS011;1910;49.042;9.028;2023-03-03T00:38:58;65.95;;;26.65;;
3789;SDS011;1910;49.042;9.028;2023-03-03T00:41:38;52.35;;;25.23;;
3789;SDS011;1910;49.042;9.028;2023-03-03T00:47:22;56.05;;;25.35;;
3789;SDS011;1910;49.042;9.028;2023-03-03T00:52:35;61.60;;;25.25;;
3789;SDS011;1910;49.042;9.028;2023-03-03T00:55:02;65.95;;;28.80;;
3789;SDS011;1910;49.042;9.028;2023-03-03T00:57:29;77.10;;;30.05;;
3789;SDS011;1910;49.042;9.028;2023-03-03T00:59:55;57.35;;;26.00;;
3789;SDS011;1910;49.042;9.028;2023-03-03T01:02:21;54.07;;;26.33;;
3789;SDS011;1910;49.042;9.028;2023-03-03T01:04:52;64.30;;;26.07;;
3789;SDS011;1910;49.042;9.028;2023-03-03T01:07:20;54.35;;;24.25;;
3789;SDS011;1910;49.042;9.028;2023-03-03T01:09:45;63.37;;;27.40;;
3789;SDS011;1910;49.042;9.028;2023-03-03T01:12:11;69.07;;;28.40;;
3789;SDS011;1910;49.042;9.028;2023-03-03T01:14:37;67.37;;;25.83;;
3789;SDS011;1910;49.042;9.028;2023-03-03T01:17:03;74.45;;;29.83;;
3789;SDS011;1910;49.042;9.028;2023-03-03T01:19:29;58.30;;;26.80;;
3789;SDS011;1910;49.042;9.028;2023-03-03T01:21:54;55.60;;;26.33;;
3789;SDS011;1910;49.042;9.028;2023-03-03T01:24:20;50.03;;;25.77;;
3789;SDS011;1910;49.042;9.028;2023-03-03T01:26:46;59.10;;;26.17;;
3789;SDS011;1910;49.042;9.028;2023-03-03T01:29:12;62.03;;;27.80;;
3789;SDS011;1910;49.042;9.028;2023-03-03T01:31:37;54.47;;;23.73;;
3789;SDS011;1910;49.042;9.028;2023-03-03T01:34:04;61.95;;;25.80;;
3789;SDS011;1910;49.042;9.028;2023-03-03T01:36:31;64.38;;;24.33;;
3789;SDS011;1910;49.042;9.028;2023-03-03T01:38:56;55.77;;;25.50;;
3789;SDS011;1910;49.042;9.028;2023-03-03T01:41:22;60.53;;;25.93;;
3789;SDS011;1910;49.042;9.028;2023-03-03T01:43:48;69.63;;;27.40;;
3789;SDS011;1910;49.042;9.028;2023-03-03T01:46:36;53.70;;;23.90;;
3789;SDS011;1910;49.042;9.028;2023-03-03T01:49:06;52.53;;;24.50;;
3789;SDS011;1910;49.042;9.028;2023-03-03T01:51:45;62.28;;;25.88;;
3789;SDS011;1910;49.042;9.028;2023-03-03T01:54:19;61.00;;;24.95;;
3789;SDS011;1910;49.042;9.028;2023-03-03T01:56:49;51.13;;;26.10;;
3789;SDS011;1910;49.042;9.028;2023-03-03T01:59:18;57.08;;;22.35;;
3789;SDS011;1910;49.042;9.028;2023-03-03T02:01:46;60.40;;;24.10;;
3789;SDS011;1910;49.042;9.028;2023-03-03T02:04:13;52.67;;;22.75;;
3789;SDS011;1910;49.042;9.028;2023-03-03T02:06:40;58.15;;;24.27;;
3789;SDS011;1910;49.042;9.028;2023-03-03T02:09:15;52.30;;;24.10;;
3789;SDS011;1910;49.042;9.028;2023-03-03T02:11:46;49.08;;;22.33;;
3789;SDS011;1910;49.042;9.028;2023-03-03T02:14:14;57.78;;;23.55;;
3789;SDS011;1910;49.042;9.028;2023-03-03T02:16:40;59.97;;;23.93;;
3789;SDS011;1910;49.042;9.028;2023-03-03T02:19:06;64.23;;;25.20;;
3789;SDS011;1910;49.042;9.028;2023-03-03T02:21:46;69.05;;;26.30;;
3789;SDS011;1910;49.042;9.028;2023-03-03T02:24:14;54.40;;;22.13;;
3789;SDS011;1910;49.042;9.028;2023-03-03T02:26:49;45.75;;;21.80;;
3789;SDS011;1910;49.042;9.028;2023-03-03T02:29:14;59.77;;;22.40;;
3789;SDS011;1910;49.042;9.028;2023-03-03T02:31:40;48.10;;;22.63;;
3789;SDS011;1910;49.042;9.028;2023-03-03T02:34:07;64.22;;;28.02;;
3789;SDS011;1910;49.042;9.028;2023-03-03T02:36:33;58.40;;;27.43;;
3789;SDS011;1910;49.042;9.028;2023-03-03T02:39:04;53.30;;;22.40;;
3789;SDS011;1910;49.042;9.028;2023-03-03T02:44:19;55.00;;;23.08;;
3789;SDS011;1910;49.042;9.028;2023-03-03T02:46:49;60.40;;;24.92;;
3789;SDS011;1910;49.042;9.028;2023-03-03T02:49:17;45.38;;;21.10;;
3789;SDS011;1910;49.042;9.028;2023-03-03T02:51:47;51.85;;;22.35;;
3789;SDS011;1910;49.042;9.028;2023-03-03T02:54:14;65.30;;;25.05;;
3789;SDS011;1910;49.042;9.028;2023-03-03T02:56:41;53.00;;;24.80;;
3789;SDS011;1910;49.042;9.028;2023-03-03T02:59:07;50.87;;;24.07;;
3789;SDS011;1910;49.042;9.028;2023-03-03T03:01:33;62.93;;;23.23;;
3789;SDS011;1910;49.042;9.028;2023-03-03T03:04:12;53.75;;;25.40;;
3789;SDS011;1910;49.042;9.028;2023-03-03T03:06:42;61.83;;;26.65;;
3789;SDS011;1910;49.042;9.028;2023-03-03T03:09:09;74.40;;;25.33;;
3789;SDS011;1910;49.042;9.028;2023-03-03T03:11:36;64.00;;;25.98;;
3789;SDS011;1910;49.042;9.028;2023-03-03T03:14:06;74.63;;;26.45;;
3789;SDS011;1910;49.042;9.028;2023-03-03T03:16:33;59.63;;;27.30;;
3789;SDS011;1910;49.042;9.028;2023-03-03T03:18:59;61.42;;;27.58;;
3789;SDS011;1910;49.042;9.028;2023-03-03T03:21:25;70.60;;;28.17;;
3789;SDS011;1910;49.042;9.028;2023-03-03T03:23:51;59.27;;;25.03;;
3789;SDS011;1910;49.042;9.028;2023-03-03T03:26:16;57.77;;;26.60;;
3789;SDS011;1910;49.042;9.028;2023-03-03T03:28:44;56.35;;;27.48;;
3789;SDS011;1910;49.042;9.028;2023-03-03T03:31:11;57.00;;;24.55;;
3789;SDS011;1910;49.042;9.028;2023-03-03T03:33:36;70.40;;;28.93;;
3789;SDS011;1910;49.042;9.028;2023-03-03T03:36:02;65.50;;;29.77;;
3789;SDS011;1910;49.042;9.028;2023-03-03T03:38:28;78.63;;;29.40;;
3789;SDS011;1910;49.042;9.028;2023-03-03T03:40:55;63.92;;;26.25;;
3789;SDS011;1910;49.042;9.028;2023-03-03T03:43:21;69.65;;;29.05;;
3789;SDS011;1910;49.042;9.028;2023-03-03T03:45:47;62.73;;;27.77;;
3789;SDS011;1910;49.042;9.028;2023-03-03T03:48:12;65.03;;;25.80;;
3789;SDS011;1910;49.042;9.028;2023-03-03T03:50:39;73.25;;;29.13;;
3789;SDS011;1910;49.042;9.028;2023-03-03T03:53:05;86.50;;;34.73;;
3789;SDS011;1910;49.042;9.028;2023-03-03T03:55:31;78.90;;;30.08;;
3789;SDS011;1910;49.042;9.028;2023-03-03T03:57:57;73.53;;;30.53;;
3789;SDS011;1910;49.042;9.028;2023-03-03T04:00:23;70.40;;;29.20;;
3789;SDS011;1910;49.042;9.028;2023-03-03T04:02:49;76.00;;;29.10;;
3789;SDS011;1910;49.042;9.028;2023-03-03T04:05:14;73.27;;;31.07;;
3789;SDS011;1910;49.042;9.028;2023-03-03T04:07:40;71.23;;;30.17;;
3789;SDS011;1910;49.042;9.028;2023-03-03T04:10:06;62.43;;;26.53;;
3789;SDS011;1910;49.042;9.028;2023-03-03T04:12:32;67.28;;;27.58;;
3789;SDS011;1910;49.042;9.028;2023-03-03T04:15:03;66.30;;;28.77;;
3789;SDS011;1910;49.042;9.028;2023-03-03T04:17:30;58.67;;;27.92;;
3789;SDS011;1910;49.042;9.028;2023-03-03T04:19:56;65.93;;;27.97;;
3789;SDS011;1910;49.042;9.028;2023-03-03T04:22:21;72.70;;;27.60;;
3789;SDS011;1910;49.042;9.028;2023-03-03T04:24:47;62.20;;;27.67;;
3789;SDS011;1910;49.042;9.028;2023-03-03T04:27:12;69.50;;;28.23;;
3789;SDS011;1910;49.042;9.028;2023-03-03T04:29:39;68.07;;;26.73;;
3789;SDS011;1910;49.042;9.028;2023-03-03T04:32:05;71.43;;;28.40;;
3789;SDS011;1910;49.042;9.028;2023-03-03T04:34:31;56.07;;;25.27;;
3789;SDS011;1910;49.042;9.028;2023-03-03T04:36:57;73.50;;;30.37;;
3789;SDS011;1910;49.042;9.028;2023-03-03T04:39:22;69.00;;;28.90;;
3789;SDS011;1910;49.042;9.028;2023-03-03T04:41:48;73.87;;;30.23;;
3789;SDS011;1910;49.042;9.028;2023-03-03T04:44:13;84.03;;;33.10;;
3789;SDS011;1910;49.042;9.028;2023-03-03T04:46:39;65.40;;;28.50;;
3789;SDS011;1910;49.042;9.028;2023-03-03T04:49:05;69.37;;;29.00;;
3789;SDS011;1910;49.042;9.028;2023-03-03T04:51:32;90.35;;;31.98;;
3789;SDS011;1910;49.042;9.028;2023-03-03T04:53:58;76.27;;;35.00;;
3789;SDS011;1910;49.042;9.028;2023-03-03T04:56:23;69.20;;;31.47;;
3789;SDS011;1910;49.042;9.028;2023-03-03T04:58:49;77.67;;;31.80;;
3789;SDS011;1910;49.042;9.028;2023-03-03T05:01:14;73.40;;;32.17;;
3789;SDS011;1910;49.042;9.028;2023-03-03T05:03:40;55.50;;;26.40;;
3789;SDS011;1910;49.042;9.028;2023-03-03T05:06:06;53.77;;;26.93;;
3789;SDS011;1910;49.042;9.028;2023-03-03T05:08:32;66.07;;;29.98;;
3789;SDS011;1910;49.042;9.028;2023-03-03T05:10:57;66.37;;;29.20;;
3789;SDS011;1910;49.042;9.028;2023-03-03T05:13:24;71.13;;;29.98;;
3789;SDS011;1910;49.042;9.028;2023-03-03T05:15:51;64.38;;;30.75;;
3789;SDS011;1910;49.042;9.028;2023-03-03T05:18:19;69.15;;;29.08;;
3789;SDS011;1910;49.042;9.028;2023-03-03T05:20:45;70.68;;;31.83;;
3789;SDS011;1910;49.042;9.028;2023-03-03T05:23:11;82.67;;;32.40;;
3789;SDS011;1910;49.042;9.028;2023-03-03T05:25:36;70.90;;;31.03;;
3789;SDS011;1910;49.042;9.028;2023-03-03T05:28:05;85.07;;;32.95;;
3789;SDS011;1910;49.042;9.028;2023-03-03T05:30:31;73.97;;;32.93;;
3789;SDS011;1910;49.042;9.028;2023-03-03T05:32:56;71.30;;;32.50;;
3789;SDS011;1910;49.042;9.028;2023-03-03T05:35:23;69.05;;;30.77;;
3789;SDS011;1910;49.042;9.028;2023-03-03T05:37:49;81.27;;;31.70;;
3789;SDS011;1910;49.042;9.028;2023-03-03T05:40:16;71.43;;;31.40;;
3789;SDS011;1910;49.042;9.028;2023-03-03T05:42:42;60.63;;;27.23;;
3789;SDS011;1910;49.042;9.028;2023-03-03T05:45:08;61.23;;;28.00;;
3789;SDS011;1910;49.042;9.028;2023-03-03T05:47:34;62.75;;;27.92;;
3789;SDS011;1910;49.042;9.028;2023-03-03T05:50:00;78.43;;;31.23;;
3789;SDS011;1910;49.042;9.028;2023-03-03T05:52:25;68.77;;;29.80;;
3789;SDS011;1910;49.042;9.028;2023-03-03T05:54:51;74.50;;;28.17;;
3789;SDS011;1910;49.042;9.028;2023-03-03T05:57:16;72.90;;;30.87;;
3789;SDS011;1910;49.042;9.028;2023-03-03T05:59:42;60.57;;;28.80;;
3789;SDS011;1910;49.042;9.028;2023-03-03T06:02:08;68.00;;;31.80;;
3789;SDS011;1910;49.042;9.028;2023-03-03T06:04:34;59.80;;;27.13;;
3789;SDS011;1910;49.042;9.028;2023-03-03T06:06:59;66.83;;;29.20;;
3789;SDS011;1910;49.042;9.028;2023-03-03T06:09:25;65.70;;;27.20;;
3789;SDS011;1910;49.042;9.028;2023-03-03T06:11:50;64.40;;;28.83;;
3789;SDS011;1910;49.042;9.028;2023-03-03T06:14:17;65.55;;;29.05;;
3789;SDS011;1910;49.042;9.028;2023-03-03T06:16:44;78.35;;;31.90;;
3789;SDS011;1910;49.042;9.028;2023-03-03T06:19:11;66.32;;;31.02;;
3789;SDS011;1910;49.042;9.028;2023-03-03T06:21:36;74.07;;;30.40;;
3789;SDS011;1910;49.042;9.028;2023-03-03T06:24:02;67.63;;;29.97;;
3789;SDS011;1910;49.042;9.028;2023-03-03T06:26:28;70.83;;;30.47;;
3789;SDS011;1910;49.042;9.028;2023-03-03T06:28:55;67.68;;;29.77;;
3789;SDS011;1910;49.042;9.028;2023-03-03T06:31:21;67.23;;;30.43;;
3789;SDS011;1910;49.042;9.028;2023-03-03T06:33:46;42.37;;;20.00;;
3789;SDS011;1910;49.042;9.028;2023-03-03T06:36:12;36.07;;;18.70;;
3789;SDS011;1910;49.042;9.028;2023-03-03T06:38:37;36.03;;;16.97;;
3789;SDS011;1910;49.042;9.028;2023-03-03T06:41:03;43.67;;;18.70;;
3789;SDS011;1910;49.042;9.028;2023-03-03T06:43:31;32.17;;;16.10;;
3789;SDS011;1910;49.042;9.028;2023-03-03T06:45:57;35.83;;;17.98;;
3789;SDS011;1910;49.042;9.028;2023-03-03T06:48:23;34.63;;;17.57;;
3789;SDS011;1910;49.042;9.028;2023-03-03T06:50:49;39.13;;;18.87;;
3789;SDS011;1910;49.042;9.028;2023-03-03T06:53:15;42.83;;;20.63;;
3789;SDS011;1910;49.042;9.028;2023-03-03T06:55:42;41.88;;;20.80;;
3789;SDS011;1910;49.042;9.028;2023-03-03T06:58:13;34.97;;;16.65;;
3789;SDS011;1910;49.042;9.028;2023-03-03T07:00:41;37.25;;;18.55;;
3789;SDS011;1910;49.042;9.028;2023-03-03T07:03:11;44.40;;;17.95;;
3789;SDS011;1910;49.042;9.028;2023-03-03T07:05:43;43.42;;;18.98;;
3789;SDS011;1910;49.042;9.028;2023-03-03T07:08:13;38.23;;;17.90;;
3789;SDS011;1910;49.042;9.028;2023-03-03T07:10:40;42.95;;;20.25;;
3789;SDS011;1910;49.042;9.028;2023-03-03T07:15:49;39.65;;;20.30;;
3789;SDS011;1910;49.042;9.028;2023-03-03T07:18:22;42.78;;;20.92;;
3789;SDS011;1910;49.042;9.028;2023-03-03T07:21:12;30.05;;;16.98;;
3789;SDS011;1910;49.042;9.028;2023-03-03T07:23:44;36.17;;;16.90;;
3789;SDS011;1910;49.042;9.028;2023-03-03T07:26:11;44.80;;;19.50;;
3789;SDS011;1910;49.042;9.028;2023-03-03T07:29:02;34.08;;;15.57;;
3789;SDS011;1910;49.042;9.028;2023-03-03T07:31:40;34.85;;;18.70;;
3789;SDS011;1910;49.042;9.028;2023-03-03T07:36:48;36.63;;;18.00;;
3789;SDS011;1910;49.042;9.028;2023-03-03T07:39:20;36.83;;;19.23;;
3789;SDS011;1910;49.042;9.028;2023-03-03T07:41:49;28.95;;;16.20;;
3789;SDS011;1910;49.042;9.028;2023-03-03T07:44:25;33.63;;;18.15;;
3789;SDS011;1910;49.042;9.028;2023-03-03T07:46:58;37.20;;;17.40;;
3789;SDS011;1910;49.042;9.028;2023-03-03T07:49:35;31.00;;;15.57;;
3789;SDS011;1910;49.042;9.028;2023-03-03T07:52:16;28.15;;;15.85;;
3789;SDS011;1910;49.042;9.028;2023-03-03T07:54:50;31.27;;;16.60;;
3789;SDS011;1910;49.042;9.028;2023-03-03T07:59:47;30.60;;;16.85;;
3789;SDS011;1910;49.042;9.028;2023-03-03T08:04:52;33.17;;;19.00;;
3789;SDS011;1910;49.042;9.028;2023-03-03T08:07:19;35.23;;;18.57;;
3789;SDS011;1910;49.042;9.028;2023-03-03T08:09:47;38.47;;;19.30;;
3789;SDS011;1910;49.042;9.028;2023-03-03T08:12:18;33.40;;;18.97;;
3789;SDS011;1910;49.042;9.028;2023-03-03T08:14:54;29.40;;;16.87;;
3789;SDS011;1910;49.042;9.028;2023-03-03T08:17:22;31.53;;;18.47;;
3789;SDS011;1910;49.042;9.028;2023-03-03T08:19:50;29.53;;;18.13;;
3789;SDS011;1910;49.042;9.028;2023-03-03T08:22:22;28.93;;;18.03;;
3789;SDS011;1910;49.042;9.028;2023-03-03T08:24:54;35.03;;;17.60;;
3789;SDS011;1910;49.042;9.028;2023-03-03T08:27:19;33.17;;;18.70;;
3789;SDS011;1910;49.042;9.028;2023-03-03T08:29:45;33.80;;;18.63;;
3789;SDS011;1910;49.042;9.028;2023-03-03T08:32:11;32.67;;;17.13;;
3789;SDS011;1910;49.042;9.028;2023-03-03T08:34:36;25.40;;;16.67;;
3789;SDS011;1910;49.042;9.028;2023-03-03T08:37:01;37.07;;;17.87;;
3789;SDS011;1910;49.042;9.028;2023-03-03T08:39:27;28.47;;;17.20;;
3789;SDS011;1910;49.042;9.028;2023-03-03T08:41:52;33.63;;;17.90;;
3789;SDS011;1910;49.042;9.028;2023-03-03T08:44:18;28.13;;;16.93;;
3789;SDS011;1910;49.042;9.028;2023-03-03T08:46:44;32.77;;;18.17;;
3789;SDS011;1910;49.042;9.028;2023-03-03T08:49:10;28.97;;;17.70;;
3789;SDS011;1910;49.042;9.028;2023-03-03T08:51:35;28.33;;;16.60;;
3789;SDS011;1910;49.042;9.028;2023-03-03T08:54:01;29.10;;;16.23;;
3789;SDS011;1910;49.042;9.028;2023-03-03T08:56:26;27.57;;;16.10;;
3789;SDS011;1910;49.042;9.028;2023-03-03T08:58:52;25.63;;;16.50;;
3789;SDS011;1910;49.042;9.028;2023-03-03T09:01:17;31.03;;;18.67;;
3789;SDS011;1910;49.042;9.028;2023-03-03T09:03:43;31.67;;;17.50;;
3789;SDS011;1910;49.042;9.028;2023-03-03T09:06:09;31.30;;;17.23;;
3789;SDS011;1910;49.042;9.028;2023-03-03T09:08:35;29.70;;;16.40;;
3789;SDS011;1910;49.042;9.028;2023-03-03T09:11:01;25.97;;;17.33;;
3789;SDS011;1910;49.042;9.028;2023-03-03T09:13:28;32.67;;;18.57;;
3789;SDS011;1910;49.042;9.028;2023-03-03T09:15:56;31.17;;;17.60;;
3789;SDS011;1910;49.042;9.028;2023-03-03T09:18:34;30.90;;;17.63;;
3789;SDS011;1910;49.042;9.028;2023-03-03T09:21:01;26.00;;;16.63;;
3789;SDS011;1910;49.042;9.028;2023-03-03T09:23:41;29.77;;;16.07;;
3789;SDS011;1910;49.042;9.028;2023-03-03T09:26:19;37.63;;;18.30;;
3789;SDS011;1910;49.042;9.028;2023-03-03T09:31:39;29.40;;;16.80;;
3789;SDS011;1910;49.042;9.028;2023-03-03T09:34:17;33.10;;;18.80;;
3789;SDS011;1910;49.042;9.028;2023-03-03T09:39:47;27.57;;;16.57;;
3789;SDS011;1910;49.042;9.028;2023-03-03T09:56:55;31.93;;;17.77;;
3789;SDS011;1910;49.042;9.028;2023-03-03T09:59:11;35.13;;;18.47;;
3789;SDS011;1910;49.042;9.028;2023-03-03T10:10:15;34.70;;;17.80;;
3789;SDS011;1910;49.042;9.028;2023-03-03T10:13:05;33.70;;;18.45;;
3789;SDS011;1910;49.042;9.028;2023-03-03T10:18:11;32.15;;;18.00;;
3789;SDS011;1910;49.042;9.028;2023-03-03T10:32:20;37.17;;;20.25;;
3789;SDS011;1910;49.042;9.028;2023-03-03T10:37:27;32.63;;;18.90;;
3789;SDS011;1910;49.042;9.028;2023-03-03T10:40:10;30.83;;;16.98;;
3789;SDS011;1910;49.042;9.028;2023-03-03T10:46:03;36.15;;;18.55;;
3789;SDS011;1910;49.042;9.028;2023-03-03T10:48:41;37.75;;;19.20;;
3789;SDS011;1910;49.042;9.028;2023-03-03T10:51:36;37.45;;;18.52;;
3789;SDS011;1910;49.042;9.028;2023-03-03T11:05:59;30.30;;;17.50;;
3789;SDS011;1910;49.042;9.028;2023-03-03T11:08:33;34.75;;;19.55;;
3789;SDS011;1910;49.042;9.028;2023-03-03T11:13:49;33.92;;;19.33;;
3789;SDS011;1910;49.042;9.028;2023-03-03T11:16:26;33.47;;;18.02;;
3789;SDS011;1910;49.042;9.028;2023-03-03T11:22:02;37.88;;;19.35;;
3789;SDS011;1910;49.042;9.028;2023-03-03T11:24:53;36.58;;;18.52;;
3789;SDS011;1910;49.042;9.028;2023-03-03T11:32:53;36.63;;;18.85;;
3789;SDS011;1910;49.042;9.028;2023-03-03T11:35:42;37.70;;;20.48;;
3789;SDS011;1910;49.042;9.028;2023-03-03T11:38:33;35.00;;;19.00;;
3789;SDS011;1910;49.042;9.028;2023-03-03T11:44:05;41.92;;;19.70;;
3789;SDS011;1910;49.042;9.028;2023-03-03T11:46:57;39.20;;;20.95;;
3789;SDS011;1910;49.042;9.028;2023-03-03T11:49:42;37.55;;;19.10;;
3789;SDS011;1910;49.042;9.028;2023-03-03T11:52:37;34.90;;;19.25;;
3789;SDS011;1910;49.042;9.028;2023-03-03T11:55:37;41.15;;;20.00;;
3789;SDS011;1910;49.042;9.028;2023-03-03T11:58:07;43.67;;;20.65;;
3789;SDS011;1910;49.042;9.028;2023-03-03T12:01:12;40.72;;;19.02;;
3789;SDS011;1910;49.042;9.028;2023-03-03T12:06:30;47.08;;;22.75;;
3789;SDS011;1910;49.042;9.028;2023-03-03T12:17:32;45.33;;;21.63;;
3789;SDS011;1910;49.042;9.028;2023-03-03T12:25:25;38.08;;;20.38;;
3789;SDS011;1910;49.042;9.028;2023-03-03T12:30:39;48.40;;;21.80;;
3789;SDS011;1910;49.042;9.028;2023-03-03T12:36:04;42.65;;;20.60;;
3789;SDS011;1910;49.042;9.028;2023-03-03T12:41:45;43.83;;;20.25;;
3789;SDS011;1910;49.042;9.028;2023-03-03T12:45:04;40.53;;;21.13;;
3789;SDS011;1910;49.042;9.028;2023-03-03T12:47:22;41.08;;;20.52;;
3789;SDS011;1910;49.042;9.028;2023-03-03T12:55:24;53.55;;;22.02;;
3789;SDS011;1910;49.042;9.028;2023-03-03T12:58:05;37.03;;;21.95;;
3789;SDS011;1910;49.042;9.028;2023-03-03T13:01:05;36.05;;;19.10;;
3789;SDS011;1910;49.042;9.028;2023-03-03T13:06:42;37.40;;;20.65;;
3789;SDS011;1910;49.042;9.028;2023-03-03T13:09:24;57.78;;;23.25;;
3789;SDS011;1910;49.042;9.028;2023-03-03T13:20:47;42.58;;;20.70;;
3789;SDS011;1910;49.042;9.028;2023-03-03T13:23:30;41.80;;;21.10;;
3789;SDS011;1910;49.042;9.028;2023-03-03T13:26:28;44.55;;;23.10;;
3789;SDS011;1910;49.042;9.028;2023-03-03T13:31:38;39.33;;;21.95;;
3789;SDS011;1910;49.042;9.028;2023-03-03T13:34:07;47.17;;;21.85;;
3789;SDS011;1910;49.042;9.028;2023-03-03T13:36:46;39.50;;;22.77;;
3789;SDS011;1910;49.042;9.028;2023-03-03T13:39:20;40.22;;;21.75;;
3789;SDS011;1910;49.042;9.028;2023-03-03T13:42:02;45.97;;;22.05;;
3789;SDS011;1910;49.042;9.028;2023-03-03T13:44:41;36.30;;;21.00;;
3789;SDS011;1910;49.042;9.028;2023-03-03T13:58:38;35.28;;;20.75;;
3789;SDS011;1910;49.042;9.028;2023-03-03T14:01:25;44.30;;;22.08;;
3789;SDS011;1910;49.042;9.028;2023-03-03T14:04:05;41.90;;;21.73;;
3789;SDS011;1910;49.042;9.028;2023-03-03T14:06:46;48.65;;;23.90;;
3789;SDS011;1910;49.042;9.028;2023-03-03T14:09:38;43.78;;;23.23;;
3789;SDS011;1910;49.042;9.028;2023-03-03T14:12:50;49.78;;;23.63;;
3789;SDS011;1910;49.042;9.028;2023-03-03T14:20:52;35.20;;;19.40;;
3789;SDS011;1910;49.042;9.028;2023-03-03T14:23:41;37.35;;;20.65;;
3789;SDS011;1910;49.042;9.028;2023-03-03T14:26:29;37.03;;;19.45;;
3789;SDS011;1910;49.042;9.028;2023-03-03T14:31:59;36.92;;;20.85;;
3789;SDS011;1910;49.042;9.028;2023-03-03T14:37:19;40.35;;;20.02;;
3789;SDS011;1910;49.042;9.028;2023-03-03T14:40:37;41.53;;;20.58;;
3789;SDS011;1910;49.042;9.028;2023-03-03T14:42:46;38.97;;;19.65;;
3789;SDS011;1910;49.042;9.028;2023-03-03T14:45:37;37.67;;;19.48;;
3789;SDS011;1910;49.042;9.028;2023-03-03T14:48:10;37.85;;;21.55;;
3789;SDS011;1910;49.042;9.028;2023-03-03T14:50:40;38.83;;;22.15;;
3789;SDS011;1910;49.042;9.028;2023-03-03T14:53:10;41.65;;;20.95;;
3789;SDS011;1910;49.042;9.028;2023-03-03T14:55:37;36.20;;;19.80;;
3789;SDS011;1910;49.042;9.028;2023-03-03T15:01:05;40.58;;;20.42;;
3789;SDS011;1910;49.042;9.028;2023-03-03T15:03:33;37.47;;;20.52;;
3789;SDS011;1910;49.042;9.028;2023-03-03T15:06:12;35.83;;;20.80;;
3789;SDS011;1910;49.042;9.028;2023-03-03T15:08:51;38.28;;;20.27;;
3789;SDS011;1910;49.042;9.028;2023-03-03T15:13:42;47.03;;;22.67;;
3789;SDS011;1910;49.042;9.028;2023-03-03T15:16:21;47.13;;;21.03;;
3789;SDS011;1910;49.042;9.028;2023-03-03T15:21:58;36.70;;;18.38;;
3789;SDS011;1910;49.042;9.028;2023-03-03T15:27:10;45.15;;;21.33;;
3789;SDS011;1910;49.042;9.028;2023-03-03T15:32:57;41.53;;;21.65;;
3789;SDS011;1910;49.042;9.028;2023-03-03T15:35:35;42.53;;;21.02;;
3789;SDS011;1910;49.042;9.028;2023-03-03T15:38:33;41.63;;;21.27;;
3789;SDS011;1910;49.042;9.028;2023-03-03T15:41:22;43.65;;;20.95;;
3789;SDS011;1910;49.042;9.028;2023-03-03T15:44:05;37.92;;;20.08;;
3789;SDS011;1910;49.042;9.028;2023-03-03T15:52:25;33.00;;;18.77;;
3789;SDS011;1910;49.042;9.028;2023-03-03T16:06:10;44.15;;;21.63;;
3789;SDS011;1910;49.042;9.028;2023-03-03T16:11:45;34.28;;;17.38;;
3789;SDS011;1910;49.042;9.028;2023-03-03T16:14:55;42.00;;;20.10;;
3789;SDS011;1910;49.042;9.028;2023-03-03T16:20:37;40.03;;;20.65;;
3789;SDS011;1910;49.042;9.028;2023-03-03T16:26:42;37.20;;;17.42;;
3789;SDS011;1910;49.042;9.028;2023-03-03T16:29:06;34.97;;;20.27;;
3789;SDS011;1910;49.042;9.028;2023-03-03T16:31:55;37.85;;;18.85;;
3789;SDS011;1910;49.042;9.028;2023-03-03T16:40:19;39.70;;;20.13;;
3789;SDS011;1910;49.042;9.028;2023-03-03T16:42:59;44.63;;;21.30;;
3789;SDS011;1910;49.042;9.028;2023-03-03T16:45:45;31.75;;;17.25;;
3789;SDS011;1910;49.042;9.028;2023-03-03T16:56:34;35.17;;;16.85;;
3789;SDS011;1910;49.042;9.028;2023-03-03T17:05:20;34.67;;;18.60;;
3789;SDS011;1910;49.042;9.028;2023-03-03T17:11:07;37.78;;;17.50;;
3789;SDS011;1910;49.042;9.028;2023-03-03T17:14:01;33.67;;;16.20;;
3789;SDS011;1910;49.042;9.028;2023-03-03T17:19:58;33.90;;;17.95;;
3789;SDS011;1910;49.042;9.028;2023-03-03T17:25:19;41.42;;;21.35;;
3789;SDS011;1910;49.042;9.028;2023-03-03T17:28:00;39.22;;;19.70;;
3789;SDS011;1910;49.042;9.028;2023-03-03T17:30:38;49.60;;;22.75;;
3789;SDS011;1910;49.042;9.028;2023-03-03T17:36:07;36.70;;;21.33;;
3789;SDS011;1910;49.042;9.028;2023-03-03T17:39:11;43.47;;;20.63;;
3789;SDS011;1910;49.042;9.028;2023-03-03T17:41:53;43.80;;;21.88;;
3789;SDS011;1910;49.042;9.028;2023-03-03T17:50:24;41.33;;;19.25;;
3789;SDS011;1910;49.042;9.028;2023-03-03T17:53:17;45.97;;;21.23;;
3789;SDS011;1910;49.042;9.028;2023-03-03T18:04:05;51.13;;;21.95;;
3789;SDS011;1910;49.042;9.028;2023-03-03T18:12:41;41.67;;;21.23;;
3789;SDS011;1910;49.042;9.028;2023-03-03T18:25:57;51.30;;;24.02;;
3789;SDS011;1910;49.042;9.028;2023-03-03T18:28:35;53.92;;;22.63;;
3789;SDS011;1910;49.042;9.028;2023-03-03T18:31:01;47.92;;;22.30;;
3789;SDS011;1910;49.042;9.028;2023-03-03T18:33:39;39.75;;;20.95;;
3789;SDS011;1910;49.042;9.028;2023-03-03T18:36:08;40.15;;;20.52;;
3789;SDS011;1910;49.042;9.028;2023-03-03T18:39:03;49.85;;;23.05;;
3789;SDS011;1910;49.042;9.028;2023-03-03T18:41:30;50.40;;;21.92;;
3789;SDS011;1910;49.042;9.028;2023-03-03T18:44:01;46.67;;;20.23;;
3789;SDS011;1910;49.042;9.028;2023-03-03T18:46:47;57.47;;;24.75;;
3789;SDS011;1910;49.042;9.028;2023-03-03T18:49:15;48.72;;;22.08;;
3789;SDS011;1910;49.042;9.028;2023-03-03T18:59:08;46.20;;;21.53;;
3789;SDS011;1910;49.042;9.028;2023-03-03T19:01:34;47.40;;;20.60;;
3789;SDS011;1910;49.042;9.028;2023-03-03T19:04:15;50.08;;;21.40;;
3789;SDS011;1910;49.042;9.028;2023-03-03T19:09:11;40.50;;;20.50;;
3789;SDS011;1910;49.042;9.028;2023-03-03T19:11:51;41.30;;;19.00;;
3789;SDS011;1910;49.042;9.028;2023-03-03T19:16:54;41.95;;;19.33;;
3789;SDS011;1910;49.042;9.028;2023-03-03T19:19:30;45.80;;;20.30;;
3789;SDS011;1910;49.042;9.028;2023-03-03T19:22:17;40.47;;;20.25;;
3789;SDS011;1910;49.042;9.028;2023-03-03T19:27:37;41.83;;;22.45;;
3789;SDS011;1910;49.042;9.028;2023-03-03T19:36:01;39.45;;;18.85;;
3789;SDS011;1910;49.042;9.028;2023-03-03T19:38:57;54.72;;;27.63;;
3789;SDS011;1910;49.042;9.028;2023-03-03T19:41:45;53.17;;;25.98;;
3789;SDS011;1910;49.042;9.028;2023-03-03T19:47:10;53.63;;;23.25;;
3789;SDS011;1910;49.042;9.028;2023-03-03T19:50:06;43.95;;;19.98;;
3789;SDS011;1910;49.042;9.028;2023-03-03T19:55:39;38.47;;;18.88;;
3789;SDS011;1910;49.042;9.028;2023-03-03T19:58:38;36.70;;;17.77;;
3789;SDS011;1910;49.042;9.028;2023-03-03T20:01:27;36.58;;;18.58;;
3789;SDS011;1910;49.042;9.028;2023-03-03T20:09:28;41.80;;;19.98;;
3789;SDS011;1910;49.042;9.028;2023-03-03T20:12:05;39.20;;;19.20;;
3789;SDS011;1910;49.042;9.028;2023-03-03T20:22:55;49.95;;;20.77;;
3789;SDS011;1910;49.042;9.028;2023-03-03T20:31:13;42.90;;;20.05;;
3789;SDS011;1910;49.042;9.028;2023-03-03T20:36:27;86.43;;;37.58;;